createdAt,value
2018-07-22T00:00:03.373Z,0.00
2018-07-22T00:01:03.373Z,0.00
2018-07-22T00:02:03.389Z,0.00
2018-07-22T00:03:03.383Z,0.00
2018-07-22T00:04:03.380Z,0.00
2018-07-22T00:05:03.384Z,0.00
2018-07-22T00:06:03.389Z,0.00
2018-07-22T00:07:03.392Z,0.00
2018-07-22T00:08:03.388Z,0.00
2018-07-22T00:09:03.389Z,0.00
2018-07-22T00:10:03.394Z,0.00
2018-07-22T00:11:03.393Z,0.00
2018-07-22T00:12:03.395Z,0.00
2018-07-22T00:13:03.397Z,0.00
2018-07-22T00:14:03.418Z,0.00
2018-07-22T00:15:03.406Z,0.00
2018-07-22T00:16:03.407Z,0.00
2018-07-22T00:17:03.411Z,0.00
2018-07-22T00:18:03.410Z,0.00
2018-07-22T00:19:03.417Z,0.00
2018-07-22T00:20:03.413Z,0.00
2018-07-22T00:21:03.416Z,0.00
2018-07-22T00:22:03.419Z,0.00
2018-07-22T00:23:03.423Z,0.00
2018-07-22T00:24:03.423Z,0.00
2018-07-22T00:25:03.430Z,0.00
2018-07-22T00:26:03.433Z,0.00
2018-07-22T00:27:03.428Z,0.00
2018-07-22T00:28:03.432Z,0.00
2018-07-22T00:29:03.446Z,0.00
2018-07-22T00:30:03.435Z,0.00
2018-07-22T00:31:03.482Z,0.00
2018-07-22T00:32:03.441Z,0.00
2018-07-22T00:33:03.443Z,0.00
2018-07-22T00:34:03.440Z,0.00
2018-07-22T00:35:03.461Z,0.00
2018-07-22T00:36:03.447Z,0.00
2018-07-22T00:37:03.451Z,0.00
2018-07-22T00:38:03.453Z,0.00
2018-07-22T00:39:03.491Z,0.00
2018-07-22T00:40:03.456Z,0.00
2018-07-22T00:41:03.463Z,0.00
2018-07-22T00:42:03.460Z,0.00
2018-07-22T00:43:03.463Z,0.00
2018-07-22T00:44:03.471Z,0.00
2018-07-22T00:45:03.466Z,0.00
2018-07-22T00:46:03.467Z,0.00
2018-07-22T00:47:03.472Z,0.00
2018-07-22T00:48:03.471Z,0.00
2018-07-22T00:49:03.475Z,0.00
2018-07-22T00:50:03.477Z,0.00
2018-07-22T00:51:03.481Z,0.00
2018-07-22T00:52:03.481Z,0.00
2018-07-22T00:53:03.483Z,0.00
2018-07-22T00:54:03.486Z,0.00
2018-07-22T00:55:03.485Z,0.00
2018-07-22T00:56:03.493Z,0.00
2018-07-22T00:57:03.489Z,0.00
2018-07-22T00:58:03.493Z,0.00
2018-07-22T00:59:03.494Z,0.00
2018-07-22T01:00:03.587Z,0.00
2018-07-22T01:01:03.502Z,0.00
2018-07-22T01:02:03.503Z,0.00
2018-07-22T01:03:03.504Z,0.00
2018-07-22T01:04:03.508Z,0.00
2018-07-22T01:05:03.508Z,0.00
2018-07-22T01:06:03.516Z,0.00
2018-07-22T01:07:03.513Z,0.00
2018-07-22T01:08:03.516Z,0.00
2018-07-22T01:09:03.514Z,0.00
2018-07-22T01:10:03.525Z,0.00
2018-07-22T01:11:03.520Z,0.00
2018-07-22T01:12:03.521Z,0.00
2018-07-22T01:13:03.523Z,0.00
2018-07-22T01:14:03.533Z,0.00
2018-07-22T01:15:03.524Z,0.00
2018-07-22T01:16:03.530Z,0.00
2018-07-22T01:17:03.526Z,0.00
2018-07-22T01:18:03.530Z,0.00
2018-07-22T01:19:03.533Z,0.00
2018-07-22T01:20:03.541Z,0.00
2018-07-22T01:21:03.539Z,0.00
2018-07-22T01:22:03.541Z,0.00
2018-07-22T01:23:03.543Z,0.00
2018-07-22T01:24:03.544Z,0.00
2018-07-22T01:25:03.550Z,0.00
2018-07-22T01:26:03.552Z,0.00
2018-07-22T01:27:03.552Z,0.00
2018-07-22T01:28:03.551Z,0.00
2018-07-22T01:29:03.555Z,0.00
2018-07-22T01:30:03.558Z,0.00
2018-07-22T01:31:03.559Z,0.00
2018-07-22T01:32:03.562Z,0.00
2018-07-22T01:33:03.565Z,0.00
2018-07-22T01:34:03.564Z,0.00
2018-07-22T01:35:03.565Z,0.00
2018-07-22T01:36:03.567Z,0.00
2018-07-22T01:37:03.568Z,0.00
2018-07-22T01:38:03.580Z,0.00
2018-07-22T01:39:03.569Z,0.00
2018-07-22T01:40:03.572Z,0.00
2018-07-22T01:41:03.579Z,0.00
2018-07-22T01:42:03.578Z,0.00
2018-07-22T01:43:03.580Z,0.00
2018-07-22T01:44:03.586Z,0.00
2018-07-22T01:45:03.585Z,0.00
2018-07-22T01:46:03.586Z,0.00
2018-07-22T01:47:03.586Z,0.00
2018-07-22T01:48:03.589Z,0.00
2018-07-22T01:49:03.590Z,0.00
2018-07-22T01:50:03.593Z,0.00
2018-07-22T01:51:03.595Z,0.00
2018-07-22T01:52:03.594Z,0.00
2018-07-22T01:53:03.596Z,0.00
2018-07-22T01:54:03.605Z,0.00
2018-07-22T01:55:03.605Z,0.00
2018-07-22T01:56:03.602Z,0.00
2018-07-22T01:57:03.604Z,0.00
2018-07-22T01:58:03.607Z,0.00
2018-07-22T01:59:03.602Z,0.00
2018-07-22T02:00:03.606Z,0.00
2018-07-22T02:01:03.611Z,0.00
2018-07-22T02:02:03.612Z,0.00
2018-07-22T02:03:03.615Z,0.00
2018-07-22T02:04:03.614Z,0.00
2018-07-22T02:05:03.615Z,0.00
2018-07-22T02:06:03.621Z,0.00
2018-07-22T02:07:03.628Z,0.00
2018-07-22T02:08:03.622Z,0.00
2018-07-22T02:09:03.620Z,0.00
2018-07-22T02:10:03.622Z,0.00
2018-07-22T02:11:03.651Z,0.00
2018-07-22T02:12:03.626Z,0.00
2018-07-22T02:13:03.630Z,0.00
2018-07-22T02:14:03.631Z,0.00
2018-07-22T02:15:03.630Z,0.00
2018-07-22T02:16:03.632Z,0.00
2018-07-22T02:17:03.637Z,0.00
2018-07-22T02:18:03.639Z,0.00
2018-07-22T02:19:03.633Z,0.00
2018-07-22T02:20:03.638Z,0.00
2018-07-22T02:21:03.642Z,0.00
2018-07-22T02:22:03.643Z,0.00
2018-07-22T02:23:03.643Z,0.00
2018-07-22T02:24:03.644Z,0.00
2018-07-22T02:25:03.649Z,0.00
2018-07-22T02:26:03.648Z,0.00
2018-07-22T02:27:03.649Z,0.00
2018-07-22T02:28:03.654Z,0.00
2018-07-22T02:29:03.651Z,0.00
2018-07-22T02:30:03.654Z,0.00
2018-07-22T02:31:03.660Z,0.00
2018-07-22T02:32:03.655Z,0.00
2018-07-22T02:33:03.665Z,0.00
2018-07-22T02:34:03.660Z,0.00
2018-07-22T02:35:03.660Z,0.00
2018-07-22T02:36:03.663Z,0.00
2018-07-22T02:37:03.664Z,0.00
2018-07-22T02:38:03.660Z,0.00
2018-07-22T02:39:03.663Z,0.00
2018-07-22T02:40:03.667Z,0.00
2018-07-22T02:41:03.674Z,0.00
2018-07-22T02:42:03.672Z,0.00
2018-07-22T02:43:03.672Z,0.00
2018-07-22T02:44:03.675Z,0.00
2018-07-22T02:45:03.673Z,0.00
2018-07-22T02:46:03.677Z,0.00
2018-07-22T02:47:03.678Z,0.00
2018-07-22T02:48:03.679Z,0.00
2018-07-22T02:49:03.686Z,0.00
2018-07-22T02:50:03.690Z,0.00
2018-07-22T02:51:03.682Z,0.00
2018-07-22T02:52:03.681Z,0.00
2018-07-22T02:53:03.682Z,0.00
2018-07-22T02:54:03.684Z,0.00
2018-07-22T02:55:03.684Z,0.00
2018-07-22T02:56:03.690Z,0.00
2018-07-22T02:57:03.685Z,0.00
2018-07-22T02:58:03.690Z,0.00
2018-07-22T02:59:03.691Z,0.00
2018-07-22T03:00:03.694Z,0.00
2018-07-22T03:01:03.692Z,0.00
2018-07-22T03:02:03.694Z,0.00
2018-07-22T03:03:03.693Z,0.00
2018-07-22T03:04:03.696Z,0.00
2018-07-22T03:05:03.698Z,0.00
2018-07-22T03:06:03.697Z,0.00
2018-07-22T03:07:03.695Z,5.63
2018-07-22T03:08:03.704Z,5.63
2018-07-22T03:09:03.702Z,5.63
2018-07-22T03:10:03.702Z,5.63
2018-07-22T03:11:03.702Z,5.63
2018-07-22T03:12:03.704Z,5.63
2018-07-22T03:13:03.706Z,5.63
2018-07-22T03:14:03.708Z,5.63
2018-07-22T03:15:03.880Z,11.25
2018-07-22T03:16:03.706Z,11.25
2018-07-22T03:17:03.713Z,11.25
2018-07-22T03:18:03.710Z,11.25
2018-07-22T03:19:03.715Z,11.25
2018-07-22T03:20:03.714Z,16.88
2018-07-22T03:21:03.714Z,16.88
2018-07-22T03:22:03.717Z,16.88
2018-07-22T03:23:03.716Z,16.88
2018-07-22T03:24:03.718Z,16.88
2018-07-22T03:25:03.719Z,22.50
2018-07-22T03:26:03.723Z,22.50
2018-07-22T03:27:03.722Z,22.50
2018-07-22T03:28:03.722Z,22.50
2018-07-22T03:29:03.726Z,22.50
2018-07-22T03:30:03.725Z,22.50
2018-07-22T03:31:03.726Z,22.50
2018-07-22T03:32:03.730Z,22.50
2018-07-22T03:33:03.725Z,22.50
2018-07-22T03:34:03.726Z,22.50
2018-07-22T03:35:03.730Z,22.50
2018-07-22T03:36:03.731Z,22.50
2018-07-22T03:37:03.733Z,22.50
2018-07-22T03:38:03.734Z,22.50
2018-07-22T03:39:03.739Z,22.50
2018-07-22T03:40:03.735Z,22.50
2018-07-22T03:41:03.737Z,22.50
2018-07-22T03:42:03.740Z,28.13
2018-07-22T03:43:03.739Z,28.13
2018-07-22T03:44:03.742Z,28.13
2018-07-22T03:45:03.741Z,28.13
2018-07-22T03:46:03.743Z,33.75
2018-07-22T03:47:03.747Z,33.75
2018-07-22T03:48:03.744Z,33.75
2018-07-22T03:49:03.745Z,39.38
2018-07-22T03:50:03.809Z,39.38
2018-07-22T03:51:03.743Z,39.38
2018-07-22T03:52:03.747Z,39.38
2018-07-22T03:53:03.750Z,39.38
2018-07-22T03:54:03.751Z,39.38
2018-07-22T03:55:03.752Z,45.00
2018-07-22T03:56:03.752Z,45.00
2018-07-22T03:57:03.755Z,45.00
2018-07-22T03:58:03.757Z,50.63
2018-07-22T03:59:03.756Z,50.63
2018-07-22T04:00:03.757Z,50.63
2018-07-22T04:01:03.757Z,56.25
2018-07-22T04:02:03.760Z,56.25
2018-07-22T04:03:03.759Z,56.25
2018-07-22T04:04:03.761Z,61.88
2018-07-22T04:05:03.762Z,61.88
2018-07-22T04:06:03.765Z,61.88
2018-07-22T04:07:03.783Z,61.88
2018-07-22T04:08:03.765Z,61.88
2018-07-22T04:09:03.769Z,61.88
2018-07-22T04:10:03.763Z,61.88
2018-07-22T04:11:03.769Z,61.88
2018-07-22T04:12:03.768Z,67.50
2018-07-22T04:13:03.771Z,67.50
2018-07-22T04:14:03.771Z,67.50
2018-07-22T04:15:03.776Z,73.13
2018-07-22T04:16:03.774Z,73.13
2018-07-22T04:17:03.772Z,78.75
2018-07-22T04:18:03.778Z,78.75
2018-07-22T04:19:03.777Z,78.75
2018-07-22T04:20:03.782Z,78.75
2018-07-22T04:21:03.780Z,78.75
2018-07-22T04:22:03.782Z,78.75
2018-07-22T04:23:03.783Z,84.38
2018-07-22T04:24:03.787Z,84.38
2018-07-22T04:25:03.788Z,84.38
2018-07-22T04:26:03.823Z,84.38
2018-07-22T04:27:03.789Z,84.38
2018-07-22T04:28:03.789Z,84.38
2018-07-22T04:29:03.790Z,90.00
2018-07-22T04:30:03.793Z,90.00
2018-07-22T04:31:03.793Z,90.00
2018-07-22T04:32:03.795Z,90.00
2018-07-22T04:33:03.795Z,95.63
2018-07-22T04:34:03.799Z,95.63
2018-07-22T04:35:03.799Z,101.25
2018-07-22T04:36:03.798Z,101.25
2018-07-22T04:37:03.796Z,101.25
2018-07-22T04:38:03.804Z,106.88
2018-07-22T04:39:03.806Z,106.88
2018-07-22T04:40:03.813Z,106.88
2018-07-22T04:41:03.808Z,106.88
2018-07-22T04:42:03.810Z,112.50
2018-07-22T04:43:03.808Z,112.50
2018-07-22T04:44:03.811Z,112.50
2018-07-22T04:45:03.817Z,112.50
2018-07-22T04:46:03.816Z,118.13
2018-07-22T04:47:03.810Z,118.13
2018-07-22T04:48:03.814Z,123.75
2018-07-22T04:49:03.819Z,123.75
2018-07-22T04:50:03.821Z,129.38
2018-07-22T04:51:03.822Z,135.00
2018-07-22T04:52:03.824Z,135.00
2018-07-22T04:53:03.828Z,135.00
2018-07-22T04:54:03.827Z,140.63
2018-07-22T04:55:03.831Z,140.63
2018-07-22T04:56:03.832Z,140.63
2018-07-22T04:57:03.832Z,140.63
2018-07-22T04:58:03.834Z,140.63
2018-07-22T04:59:03.837Z,140.63
2018-07-22T05:00:03.833Z,140.63
2018-07-22T05:01:03.842Z,140.63
2018-07-22T05:02:03.845Z,140.63
2018-07-22T05:03:03.841Z,140.63
2018-07-22T05:04:03.844Z,140.63
2018-07-22T05:05:03.846Z,140.63
2018-07-22T05:06:03.846Z,146.25
2018-07-22T05:07:03.849Z,146.25
2018-07-22T05:08:03.848Z,146.25
2018-07-22T05:09:03.852Z,151.88
2018-07-22T05:10:03.856Z,151.88
2018-07-22T05:11:03.856Z,157.50
2018-07-22T05:12:03.857Z,157.50
2018-07-22T05:13:03.862Z,163.13
2018-07-22T05:14:03.863Z,163.13
2018-07-22T05:15:03.866Z,163.13
2018-07-22T05:16:03.861Z,168.75
2018-07-22T05:17:03.867Z,168.75
2018-07-22T05:18:03.870Z,168.75
2018-07-22T05:19:03.877Z,174.38
2018-07-22T05:20:03.876Z,174.38
2018-07-22T05:21:03.876Z,174.38
2018-07-22T05:22:03.876Z,174.38
2018-07-22T05:23:03.881Z,174.38
2018-07-22T05:24:03.881Z,174.38
2018-07-22T05:25:03.887Z,174.38
2018-07-22T05:26:03.886Z,174.38
2018-07-22T05:27:03.894Z,174.38
2018-07-22T05:28:03.889Z,174.38
2018-07-22T05:29:03.893Z,174.38
2018-07-22T05:30:03.894Z,174.38
2018-07-22T05:31:03.897Z,174.38
2018-07-22T05:32:03.899Z,168.75
2018-07-22T05:33:03.900Z,168.75
2018-07-22T05:34:03.904Z,168.75
2018-07-22T05:35:03.905Z,168.75
2018-07-22T05:36:03.914Z,168.75
2018-07-22T05:37:03.910Z,168.75
2018-07-22T05:38:03.915Z,168.75
2018-07-22T05:39:03.918Z,168.75
2018-07-22T05:40:03.922Z,168.75
2018-07-22T05:41:03.919Z,168.75
2018-07-22T05:42:03.942Z,168.75
2018-07-22T05:43:03.928Z,168.75
2018-07-22T05:44:03.927Z,168.75
2018-07-22T05:45:03.928Z,168.75
2018-07-22T05:46:03.931Z,168.75
2018-07-22T05:47:03.933Z,168.75
2018-07-22T05:48:03.935Z,174.38
2018-07-22T05:49:03.938Z,174.38
2018-07-22T05:50:03.939Z,174.38
2018-07-22T05:51:03.940Z,174.38
2018-07-22T05:52:03.941Z,174.38
2018-07-22T05:53:03.970Z,180.00
2018-07-22T05:54:04.021Z,180.00
2018-07-22T05:55:03.950Z,180.00
2018-07-22T05:56:03.953Z,180.00
2018-07-22T05:57:03.957Z,180.00
2018-07-22T05:58:03.963Z,180.00
2018-07-22T05:59:03.960Z,180.00
2018-07-22T06:00:03.963Z,180.00
2018-07-22T06:01:03.966Z,185.63
2018-07-22T06:02:03.967Z,191.25
2018-07-22T06:03:03.995Z,191.25
2018-07-22T06:04:03.974Z,196.88
2018-07-22T06:05:03.975Z,202.50
2018-07-22T06:06:03.980Z,208.13
2018-07-22T06:07:03.980Z,213.75
2018-07-22T06:08:03.985Z,219.38
2018-07-22T06:09:03.992Z,225.00
2018-07-22T06:10:03.988Z,230.63
2018-07-22T06:11:03.990Z,236.25
2018-07-22T06:12:04.051Z,241.88
2018-07-22T06:13:03.998Z,247.50
2018-07-22T06:14:04.000Z,253.13
2018-07-22T06:15:04.000Z,253.13
2018-07-22T06:16:04.000Z,258.75
2018-07-22T06:17:04.007Z,258.75
2018-07-22T06:18:04.011Z,258.75
2018-07-22T06:19:04.013Z,258.75
2018-07-22T06:20:04.043Z,258.75
2018-07-22T06:21:04.019Z,258.75
2018-07-22T06:22:04.021Z,258.75
2018-07-22T06:23:04.026Z,258.75
2018-07-22T06:24:04.028Z,264.38
2018-07-22T06:25:04.033Z,264.38
2018-07-22T06:26:04.037Z,264.38
2018-07-22T06:27:04.035Z,264.38
2018-07-22T06:28:04.039Z,270.00
2018-07-22T06:29:04.042Z,275.63
2018-07-22T06:30:04.046Z,275.63
2018-07-22T06:31:04.050Z,286.88
2018-07-22T06:32:04.054Z,292.50
2018-07-22T06:33:04.060Z,298.13
2018-07-22T06:34:04.061Z,303.75
2018-07-22T06:35:04.053Z,303.75
2018-07-22T06:36:04.066Z,309.38
2018-07-22T06:37:04.066Z,315.00
2018-07-22T06:38:04.063Z,315.00
2018-07-22T06:39:04.074Z,320.63
2018-07-22T06:40:04.075Z,320.63
2018-07-22T06:41:04.129Z,326.25
2018-07-22T06:42:04.085Z,331.88
2018-07-22T06:43:04.081Z,337.50
2018-07-22T06:44:04.084Z,331.88
2018-07-22T06:45:04.090Z,337.50
2018-07-22T06:46:04.112Z,337.50
2018-07-22T06:47:04.100Z,343.13
2018-07-22T06:48:04.102Z,348.75
2018-07-22T06:49:04.118Z,360.00
2018-07-22T06:50:04.108Z,376.88
2018-07-22T06:51:04.114Z,382.50
2018-07-22T06:52:04.115Z,382.50
2018-07-22T06:53:04.120Z,393.75
2018-07-22T06:54:04.123Z,405.00
2018-07-22T06:55:04.128Z,410.63
2018-07-22T06:56:04.130Z,410.63
2018-07-22T06:57:04.145Z,427.50
2018-07-22T06:58:04.136Z,433.13
2018-07-22T06:59:04.139Z,438.75
2018-07-22T07:00:04.146Z,455.63
2018-07-22T07:01:04.149Z,495.00
2018-07-22T07:02:04.153Z,556.88
2018-07-22T07:03:04.157Z,590.63
2018-07-22T07:04:04.155Z,607.50
2018-07-22T07:05:04.198Z,641.25
2018-07-22T07:06:04.166Z,675.00
2018-07-22T07:07:04.172Z,759.38
2018-07-22T07:08:04.173Z,860.63
2018-07-22T07:09:04.373Z,939.38
2018-07-22T07:10:04.182Z,1063.13
2018-07-22T07:11:04.194Z,1153.13
2018-07-22T07:12:04.193Z,1192.50
2018-07-22T07:13:04.194Z,1254.38
2018-07-22T07:14:04.198Z,1406.25
2018-07-22T07:15:04.203Z,1518.75
2018-07-22T07:16:04.279Z,1569.38
2018-07-22T07:17:04.210Z,1485.00
2018-07-22T07:18:04.217Z,1344.38
2018-07-22T07:19:04.218Z,1226.25
2018-07-22T07:20:04.224Z,1192.50
2018-07-22T07:21:04.230Z,1125.00
2018-07-22T07:22:04.245Z,956.25
2018-07-22T07:23:04.242Z,781.88
2018-07-22T07:24:04.248Z,686.25
2018-07-22T07:25:04.254Z,652.50
2018-07-22T07:26:04.258Z,635.63
2018-07-22T07:27:04.270Z,663.75
2018-07-22T07:28:04.270Z,697.50
2018-07-22T07:29:04.274Z,725.63
2018-07-22T07:30:04.286Z,776.25
2018-07-22T07:31:04.288Z,810.00
2018-07-22T07:32:04.292Z,815.63
2018-07-22T07:33:04.299Z,911.25
2018-07-22T07:34:04.308Z,916.88
2018-07-22T07:35:04.312Z,1102.50
2018-07-22T07:36:04.318Z,1113.75
2018-07-22T07:37:04.324Z,1192.50
2018-07-22T07:38:04.330Z,1029.38
2018-07-22T07:39:04.334Z,939.38
2018-07-22T07:40:04.344Z,950.63
2018-07-22T07:41:04.363Z,905.63
2018-07-22T07:42:04.363Z,973.13
2018-07-22T07:43:04.362Z,916.88
2018-07-22T07:44:04.364Z,888.75
2018-07-22T07:45:04.373Z,933.75
2018-07-22T07:46:04.378Z,950.63
2018-07-22T07:47:04.398Z,1102.50
2018-07-22T07:48:04.393Z,1186.88
2018-07-22T07:49:04.399Z,1226.25
2018-07-22T07:50:04.406Z,1293.75
2018-07-22T07:51:04.418Z,1265.63
2018-07-22T07:52:04.420Z,1136.25
2018-07-22T07:53:04.426Z,1158.75
2018-07-22T07:54:04.442Z,945.00
2018-07-22T07:55:04.436Z,967.50
2018-07-22T07:56:04.442Z,1113.75
2018-07-22T07:57:04.449Z,1147.50
2018-07-22T07:58:04.456Z,1170.00
2018-07-22T07:59:04.461Z,1158.75
2018-07-22T08:00:04.475Z,1147.50
2018-07-22T08:01:04.476Z,978.75
2018-07-22T08:02:04.482Z,1012.50
2018-07-22T08:03:04.491Z,1243.13
2018-07-22T08:04:04.500Z,1445.63
2018-07-22T08:05:04.506Z,1501.88
2018-07-22T08:06:04.513Z,1721.25
2018-07-22T08:07:04.520Z,1884.38
2018-07-22T08:08:04.545Z,2064.38
2018-07-22T08:09:04.548Z,1996.88
2018-07-22T08:10:04.543Z,1732.50
2018-07-22T08:11:04.550Z,2160.00
2018-07-22T08:12:04.558Z,2058.75
2018-07-22T08:13:04.565Z,1856.25
2018-07-22T08:14:04.573Z,1496.25
2018-07-22T08:15:04.584Z,1811.25
2018-07-22T08:16:04.591Z,1777.50
2018-07-22T08:17:04.597Z,1811.25
2018-07-22T08:18:04.605Z,1653.75
2018-07-22T08:19:04.642Z,1687.50
2018-07-22T08:20:04.624Z,1518.75
2018-07-22T08:21:04.630Z,1569.38
2018-07-22T08:22:04.654Z,1479.38
2018-07-22T08:23:04.647Z,1788.75
2018-07-22T08:24:04.655Z,2283.75
2018-07-22T08:25:04.669Z,2503.13
2018-07-22T08:26:04.737Z,2486.25
2018-07-22T08:27:04.716Z,2491.88
2018-07-22T08:28:04.695Z,2418.75
2018-07-22T08:29:04.708Z,2266.88
2018-07-22T08:30:04.715Z,2328.75
2018-07-22T08:31:04.723Z,2244.38
2018-07-22T08:32:04.736Z,2154.38
2018-07-22T08:33:04.748Z,2244.38
2018-07-22T08:34:04.753Z,2131.88
2018-07-22T08:35:04.765Z,1659.38
2018-07-22T08:36:04.800Z,1440.00
2018-07-22T08:37:04.811Z,1861.88
2018-07-22T08:38:04.802Z,2137.50
2018-07-22T08:39:04.804Z,2109.38
2018-07-22T08:40:04.817Z,1828.13
2018-07-22T08:41:04.842Z,1890.00
2018-07-22T08:42:04.832Z,1372.50
2018-07-22T08:43:04.849Z,1395.00
2018-07-22T08:44:04.855Z,1282.50
2018-07-22T08:45:04.866Z,1411.88
2018-07-22T08:46:04.879Z,1546.88
2018-07-22T08:47:04.887Z,1575.00
2018-07-22T08:48:04.900Z,1237.50
2018-07-22T08:49:04.912Z,1215.00
2018-07-22T08:50:04.920Z,1344.38
2018-07-22T08:51:04.928Z,1884.38
2018-07-22T08:52:04.939Z,1873.13
2018-07-22T08:53:04.959Z,1597.50
2018-07-22T08:54:04.958Z,1586.25
2018-07-22T08:55:04.966Z,1040.63
2018-07-22T08:56:04.977Z,973.13
2018-07-22T08:57:04.992Z,883.13
2018-07-22T08:58:04.997Z,838.13
2018-07-22T08:59:05.071Z,945.00
2018-07-22T09:00:05.018Z,945.00
2018-07-22T09:01:05.029Z,973.13
2018-07-22T09:02:05.040Z,860.63
2018-07-22T09:03:05.048Z,849.38
2018-07-22T09:04:05.064Z,826.88
2018-07-22T09:05:05.066Z,776.25
2018-07-22T09:06:05.132Z,753.75
2018-07-22T09:07:05.083Z,731.25
2018-07-22T09:08:05.094Z,714.38
2018-07-22T09:09:05.132Z,708.75
2018-07-22T09:10:05.109Z,714.38
2018-07-22T09:11:05.119Z,703.13
2018-07-22T09:12:05.132Z,703.13
2018-07-22T09:13:05.137Z,703.13
2018-07-22T09:14:05.145Z,686.25
2018-07-22T09:15:05.152Z,663.75
2018-07-22T09:16:05.161Z,652.50
2018-07-22T09:17:05.172Z,658.13
2018-07-22T09:18:05.198Z,669.38
2018-07-22T09:19:05.187Z,669.38
2018-07-22T09:20:05.193Z,675.00
2018-07-22T09:21:05.200Z,680.63
2018-07-22T09:22:05.207Z,691.88
2018-07-22T09:23:05.216Z,703.13
2018-07-22T09:24:05.223Z,708.75
2018-07-22T09:25:05.232Z,714.38
2018-07-22T09:26:05.241Z,720.00
2018-07-22T09:27:05.252Z,725.63
2018-07-22T09:28:05.255Z,720.00
2018-07-22T09:29:05.264Z,714.38
2018-07-22T09:30:05.270Z,708.75
2018-07-22T09:31:05.280Z,703.13
2018-07-22T09:32:05.286Z,703.13
2018-07-22T09:33:05.295Z,708.75
2018-07-22T09:34:05.302Z,708.75
2018-07-22T09:35:05.308Z,708.75
2018-07-22T09:36:05.449Z,714.38
2018-07-22T09:37:05.325Z,708.75
2018-07-22T09:38:05.334Z,708.75
2018-07-22T09:39:05.338Z,714.38
2018-07-22T09:40:05.348Z,720.00
2018-07-22T09:41:05.357Z,731.25
2018-07-22T09:42:05.363Z,742.50
2018-07-22T09:43:05.374Z,748.13
2018-07-22T09:44:05.384Z,748.13
2018-07-22T09:45:05.402Z,742.50
2018-07-22T09:46:05.392Z,714.38
2018-07-22T09:47:05.414Z,686.25
2018-07-22T09:48:05.458Z,675.00
2018-07-22T09:49:05.419Z,669.38
2018-07-22T09:50:05.423Z,675.00
2018-07-22T09:51:05.430Z,686.25
2018-07-22T09:52:05.440Z,691.88
2018-07-22T09:53:05.449Z,714.38
2018-07-22T09:54:05.456Z,720.00
2018-07-22T09:55:05.462Z,742.50
2018-07-22T09:56:05.468Z,748.13
2018-07-22T09:57:05.475Z,770.63
2018-07-22T09:58:05.484Z,759.38
2018-07-22T09:59:05.500Z,759.38
2018-07-22T10:00:05.500Z,765.00
2018-07-22T10:01:05.530Z,753.75
2018-07-22T10:02:05.514Z,748.13
2018-07-22T10:03:05.524Z,731.25
2018-07-22T10:04:05.529Z,720.00
2018-07-22T10:05:05.537Z,703.13
2018-07-22T10:06:05.545Z,680.63
2018-07-22T10:07:05.550Z,669.38
2018-07-22T10:08:05.558Z,663.75
2018-07-22T10:09:05.567Z,652.50
2018-07-22T10:10:05.577Z,641.25
2018-07-22T10:11:05.609Z,635.63
2018-07-22T10:12:05.591Z,635.63
2018-07-22T10:13:05.616Z,635.63
2018-07-22T10:14:05.606Z,635.63
2018-07-22T10:15:05.610Z,635.63
2018-07-22T10:16:05.618Z,641.25
2018-07-22T10:17:05.629Z,646.88
2018-07-22T10:18:05.633Z,658.13
2018-07-22T10:19:05.640Z,663.75
2018-07-22T10:20:05.649Z,663.75
2018-07-22T10:21:05.659Z,680.63
2018-07-22T10:22:05.667Z,675.00
2018-07-22T10:23:05.674Z,658.13
2018-07-22T10:24:05.681Z,646.88
2018-07-22T10:25:05.691Z,635.63
2018-07-22T10:26:05.697Z,624.38
2018-07-22T10:27:05.705Z,624.38
2018-07-22T10:28:05.711Z,618.75
2018-07-22T10:29:05.719Z,613.13
2018-07-22T10:30:05.726Z,613.13
2018-07-22T10:31:05.738Z,607.50
2018-07-22T10:32:05.742Z,607.50
2018-07-22T10:33:05.748Z,613.13
2018-07-22T10:34:05.798Z,613.13
2018-07-22T10:35:05.763Z,618.75
2018-07-22T10:36:05.771Z,624.38
2018-07-22T10:37:05.775Z,630.00
2018-07-22T10:38:05.801Z,641.25
2018-07-22T10:39:05.793Z,652.50
2018-07-22T10:40:05.801Z,652.50
2018-07-22T10:41:05.810Z,652.50
2018-07-22T10:42:05.818Z,652.50
2018-07-22T10:43:05.855Z,652.50
2018-07-22T10:44:05.831Z,641.25
2018-07-22T10:45:05.838Z,635.63
2018-07-22T10:46:05.846Z,630.00
2018-07-22T10:47:05.852Z,624.38
2018-07-22T10:48:05.925Z,624.38
2018-07-22T10:49:05.866Z,624.38
2018-07-22T10:50:05.875Z,624.38
2018-07-22T10:51:05.954Z,618.75
2018-07-22T10:52:05.893Z,613.13
2018-07-22T10:53:05.901Z,613.13
2018-07-22T10:54:05.907Z,613.13
2018-07-22T10:55:05.911Z,613.13
2018-07-22T10:56:05.916Z,613.13
2018-07-22T10:57:05.928Z,613.13
2018-07-22T10:58:05.931Z,618.75
2018-07-22T10:59:05.938Z,618.75
2018-07-22T11:00:05.945Z,613.13
2018-07-22T11:01:05.955Z,607.50
2018-07-22T11:02:05.964Z,596.25
2018-07-22T11:03:05.970Z,590.63
2018-07-22T11:04:05.977Z,590.63
2018-07-22T11:05:05.984Z,596.25
2018-07-22T11:06:05.992Z,601.88
2018-07-22T11:07:05.999Z,601.88
2018-07-22T11:08:06.005Z,601.88
2018-07-22T11:09:06.013Z,601.88
2018-07-22T11:10:06.023Z,601.88
2018-07-22T11:11:06.026Z,601.88
2018-07-22T11:12:06.033Z,607.50
2018-07-22T11:13:06.035Z,613.13
2018-07-22T11:14:06.101Z,618.75
2018-07-22T11:15:06.053Z,624.38
2018-07-22T11:16:06.065Z,630.00
2018-07-22T11:17:06.073Z,630.00
2018-07-22T11:18:06.079Z,630.00
2018-07-22T11:19:06.086Z,624.38
2018-07-22T11:20:06.091Z,618.75
2018-07-22T11:21:06.173Z,613.13
2018-07-22T11:22:06.117Z,601.88
2018-07-22T11:23:06.111Z,601.88
2018-07-22T11:24:06.122Z,601.88
2018-07-22T11:25:06.128Z,601.88
2018-07-22T11:26:06.131Z,607.50
2018-07-22T11:27:06.138Z,607.50
2018-07-22T11:28:06.144Z,618.75
2018-07-22T11:29:06.247Z,618.75
2018-07-22T11:30:06.159Z,624.38
2018-07-22T11:31:06.175Z,624.38
2018-07-22T11:32:06.172Z,613.13
2018-07-22T11:33:06.179Z,607.50
2018-07-22T11:34:06.186Z,596.25
2018-07-22T11:35:06.268Z,585.00
2018-07-22T11:36:06.260Z,579.38
2018-07-22T11:37:06.208Z,573.75
2018-07-22T11:38:06.224Z,573.75
2018-07-22T11:39:06.223Z,573.75
2018-07-22T11:40:06.228Z,568.13
2018-07-22T11:41:06.236Z,556.88
2018-07-22T11:42:06.245Z,545.63
2018-07-22T11:43:06.252Z,540.00
2018-07-22T11:44:06.257Z,540.00
2018-07-22T11:45:06.264Z,534.38
2018-07-22T11:46:06.271Z,528.75
2018-07-22T11:47:06.282Z,528.75
2018-07-22T11:48:06.284Z,523.13
2018-07-22T11:49:06.295Z,523.13
2018-07-22T11:50:06.301Z,523.13
2018-07-22T11:51:06.305Z,528.75
2018-07-22T11:52:06.313Z,534.38
2018-07-22T11:53:06.319Z,534.38
2018-07-22T11:54:06.329Z,540.00
2018-07-22T11:55:06.335Z,540.00
2018-07-22T11:56:06.341Z,545.63
2018-07-22T11:57:06.377Z,545.63
2018-07-22T11:58:06.354Z,551.25
2018-07-22T11:59:06.360Z,562.50
2018-07-22T12:00:06.426Z,568.13
2018-07-22T12:01:06.374Z,573.75
2018-07-22T12:02:06.395Z,579.38
2018-07-22T12:03:06.387Z,579.38
2018-07-22T12:04:06.396Z,585.00
2018-07-22T12:05:06.404Z,585.00
2018-07-22T12:06:06.410Z,596.25
2018-07-22T12:07:06.416Z,613.13
2018-07-22T12:08:06.423Z,635.63
2018-07-22T12:09:06.430Z,652.50
2018-07-22T12:10:06.436Z,658.13
2018-07-22T12:11:06.445Z,658.13
2018-07-22T12:12:06.452Z,641.25
2018-07-22T12:13:06.457Z,624.38
2018-07-22T12:14:06.464Z,613.13
2018-07-22T12:15:06.470Z,613.13
2018-07-22T12:16:06.476Z,607.50
2018-07-22T12:17:06.481Z,601.88
2018-07-22T12:18:06.493Z,590.63
2018-07-22T12:19:06.524Z,568.13
2018-07-22T12:20:06.506Z,545.63
2018-07-22T12:21:06.512Z,528.75
2018-07-22T12:22:06.520Z,523.13
2018-07-22T12:23:06.526Z,523.13
2018-07-22T12:24:06.534Z,528.75
2018-07-22T12:25:06.544Z,534.38
2018-07-22T12:26:06.571Z,534.38
2018-07-22T12:27:06.559Z,528.75
2018-07-22T12:28:06.568Z,517.50
2018-07-22T12:29:06.585Z,506.25
2018-07-22T12:30:06.632Z,489.38
2018-07-22T12:31:06.605Z,478.13
2018-07-22T12:32:06.592Z,472.50
2018-07-22T12:33:06.597Z,478.13
2018-07-22T12:34:06.607Z,483.75
2018-07-22T12:35:06.613Z,495.00
2018-07-22T12:36:06.623Z,500.63
2018-07-22T12:37:06.628Z,495.00
2018-07-22T12:38:06.636Z,483.75
2018-07-22T12:39:06.644Z,472.50
2018-07-22T12:40:06.649Z,466.88